Estación de Lluta Medio

Ultimos registro cada 15 minutos 27
Estación Fecha / Hora Temperatura Humedad Lluvia Velocidad Dirección Radiación Presion
27 Lluta Medio 06-05-2026 06:30 15,4 70 0 0 0 0 955
26 Lluta Medio 06-05-2026 06:15 15,6 68,2 0 0 0 0 955
25 Lluta Medio 06-05-2026 06:00 16,1 65 0 0 0 0 955
24 Lluta Medio 06-05-2026 05:45 16,2 60 0 0,3 302 0 955
23 Lluta Medio 06-05-2026 05:30 16,3 65,1 0 0 0 0 955
22 Lluta Medio 06-05-2026 05:15 16,9 60 0 0 0 0 955
21 Lluta Medio 06-05-2026 05:00 16,6 62,4 0 0,2 80 0 955
20 Lluta Medio 06-05-2026 04:45 16,5 61,8 0 0 0 0 955
19 Lluta Medio 06-05-2026 04:30 16,2 61,8 0 0 0 0 955
18 Lluta Medio 06-05-2026 04:15 16 65,6 0 0 0 0 955
17 Lluta Medio 06-05-2026 04:00 16,6 64,6 0 0 0 0 955
16 Lluta Medio 06-05-2026 03:45 18 60,2 0 0 0 0 955
15 Lluta Medio 06-05-2026 03:30 17 53,8 0 0,8 41 0 955
14 Lluta Medio 06-05-2026 03:15 15,6 63,7 0 1,3 83 0 955
13 Lluta Medio 06-05-2026 03:00 15,1 69,6 0 1,7 89 0 955
12 Lluta Medio 06-05-2026 02:45 15 70,8 0 0,1 86 0 955
11 Lluta Medio 06-05-2026 02:30 15 71 0 0,3 92 0 955
10 Lluta Medio 06-05-2026 02:15 15,3 70,1 0 1,2 94 0 955
9 Lluta Medio 06-05-2026 02:00 15,5 69 0 0 0 0 955
8 Lluta Medio 06-05-2026 01:45 17,3 65,5 0 0,4 97 0 956
7 Lluta Medio 06-05-2026 01:30 17,8 53,6 0 0 0 0 956
6 Lluta Medio 06-05-2026 01:15 16,4 63 0 0 0 0 956
5 Lluta Medio 06-05-2026 01:00 17 66 0 0 0 0 956
4 Lluta Medio 06-05-2026 00:45 17,3 58,6 0 0 0 0 956
3 Lluta Medio 06-05-2026 00:30 19,3 58 0 0,7 31 0 956
2 Lluta Medio 06-05-2026 00:15 17,1 58,3 0 0,1 92 0 956
1 Lluta Medio 06-05-2026 00:00 17,3 61,4 0 0 0 0 956